Time;durP1;ratioP1;P1;durP2;ratioP2;P2;SDS_P1;SDS_P2;PMS_P1;PMS_P2;Temp;Humidity;BMP_temperature;BMP_pressure;BME280_temperature;BME280_humidity;BME280_pressure;Samples;Min_cycle;Max_cycle;Signal;HPM_P1;HPM_P2
2021/10/06 00:01:40;;;;;;;10.02;9.23;;;10.50;88.10;;;;;;5017686;29;20110;-68
2021/10/06 00:04:12;;;;;;;9.82;8.98;;;10.60;88.10;;;;;;5001599;29;20278;-68
2021/10/06 00:06:44;;;;;;;9.50;8.70;;;10.60;88.40;;;;;;5001559;29;20045;-68
2021/10/06 00:09:16;;;;;;;9.63;8.93;;;10.60;88.10;;;;;;5017987;29;20114;-69
2021/10/06 00:11:48;;;;;;;9.80;9.00;;;10.60;88.30;;;;;;5016797;29;20049;-68
2021/10/06 00:14:20;;;;;;;9.50;8.80;;;10.60;89.50;;;;;;5018598;29;20583;-68
2021/10/06 00:16:53;;;;;;;9.88;9.07;;;10.60;88.60;;;;;;5018496;29;20061;-68
2021/10/06 00:19:25;;;;;;;10.43;9.48;;;10.50;88.60;;;;;;5019430;29;20128;-68
2021/10/06 00:21:57;;;;;;;9.95;9.20;;;10.60;88.50;;;;;;5019794;29;20567;-68
2021/10/06 00:24:29;;;;;;;9.70;8.90;;;10.50;88.10;;;;;;5000887;29;20049;-67
2021/10/06 00:27:01;;;;;;;9.65;8.90;;;10.50;88.00;;;;;;5018136;29;20124;-68
2021/10/06 00:29:33;;;;;;;9.80;9.00;;;10.50;88.80;;;;;;5017772;29;20144;-68
2021/10/06 00:32:05;;;;;;;10.43;9.63;;;10.40;88.90;;;;;;4987442;29;20130;-69
2021/10/06 00:34:37;;;;;;;9.55;8.85;;;10.50;88.60;;;;;;5002303;29;20049;-69
2021/10/06 00:37:09;;;;;;;9.93;9.10;;;10.50;88.70;;;;;;4993015;29;20045;-67
2021/10/06 00:39:41;;;;;;;10.07;9.27;;;10.50;88.70;;;;;;4985859;29;20551;-67
2021/10/06 00:42:13;;;;;;;10.55;9.75;;;10.50;88.70;;;;;;5018215;29;20728;-67
2021/10/06 00:44:45;;;;;;;9.77;9.07;;;10.50;89.20;;;;;;5018363;29;20210;-66
2021/10/06 00:47:17;;;;;;;9.35;8.65;;;10.40;88.60;;;;;;5014676;29;20082;-67
2021/10/06 00:49:49;;;;;;;9.80;9.00;;;10.40;88.90;;;;;;5019107;29;20128;-67
2021/10/06 00:52:21;;;;;;;9.50;8.80;;;10.40;88.90;;;;;;5001979;29;20572;-67
2021/10/06 00:54:53;;;;;;;9.82;9.02;;;10.40;89.20;;;;;;5002005;29;20052;-67
2021/10/06 00:57:25;;;;;;;9.73;8.98;;;10.40;88.90;;;;;;5017306;29;20057;-67
2021/10/06 00:59:57;;;;;;;10.10;9.23;;;10.40;88.20;;;;;;5002271;29;20157;-67
2021/10/06 01:02:29;;;;;;;9.70;8.90;;;10.30;88.20;;;;;;5017793;29;20145;-68
2021/10/06 01:05:02;;;;;;;9.95;9.05;;;10.30;88.80;;;;;;4990095;29;20440;-68
2021/10/06 01:07:35;;;;;;;9.95;9.15;;;10.20;88.70;;;;;;5016529;29;20101;-67
2021/10/06 01:10:08;;;;;;;9.50;8.70;;;10.10;88.80;;;;;;5017778;29;20144;-67
2021/10/06 01:12:40;;;;;;;10.13;9.32;;;10.10;89.40;;;;;;5017917;29;20092;-67
2021/10/06 01:15:14;;;;;;;9.88;8.98;;;10.00;89.20;;;;;;5018445;29;20125;-67
2021/10/06 01:17:46;;;;;;;10.00;9.20;;;10.00;88.60;;;;;;5016756;29;20105;-67
2021/10/06 01:20:18;;;;;;;9.70;8.90;;;10.00;87.40;;;;;;5017281;29;20106;-67
2021/10/06 01:22:50;;;;;;;9.38;8.68;;;9.80;87.10;;;;;;5016601;29;20166;-68
2021/10/06 01:25:22;;;;;;;9.32;8.63;;;9.80;88.30;;;;;;5017421;29;20077;-68
2021/10/06 01:27:54;;;;;;;9.57;8.77;;;9.80;88.40;;;;;;5016565;29;20052;-66
2021/10/06 01:30:26;;;;;;;9.65;8.82;;;9.80;87.20;;;;;;5004353;29;20076;-68
2021/10/06 01:32:58;;;;;;;9.50;8.70;;;9.80;88.10;;;;;;5016804;29;20124;-66
2021/10/06 01:35:30;;;;;;;9.43;8.73;;;9.80;88.20;;;;;;5017519;29;20057;-66
2021/10/06 01:38:02;;;;;;;9.68;8.88;;;9.70;87.80;;;;;;5000361;29;20136;-66
2021/10/06 01:40:34;;;;;;;9.82;9.02;;;9.70;87.90;;;;;;5016334;29;20449;-68
2021/10/06 01:43:06;;;;;;;9.60;8.70;;;9.70;87.70;;;;;;5015797;29;20051;-68
2021/10/06 01:45:41;;;;;;;10.05;9.05;;;9.70;87.40;;;;;;5016660;29;20198;-66
2021/10/06 01:48:14;;;;;;;9.82;9.02;;;9.70;87.80;;;;;;4986108;29;20089;-67
2021/10/06 01:50:46;;;;;;;9.95;9.13;;;9.80;88.00;;;;;;5001455;29;20144;-67
2021/10/06 01:53:18;;;;;;;9.50;8.70;;;9.80;87.90;;;;;;5016193;29;20061;-66
2021/10/06 01:55:49;;;;;;;9.90;8.77;;;9.90;88.30;;;;;;5015532;29;20037;-68
2021/10/06 01:58:21;;;;;;;9.93;9.13;;;9.90;88.00;;;;;;5014931;29;20053;-68
2021/10/06 02:00:53;;;;;;;9.85;8.95;;;9.90;89.00;;;;;;5016378;29;20615;-66
2021/10/06 02:03:25;;;;;;;9.35;8.65;;;9.90;89.00;;;;;;5016809;29;20053;-66
2021/10/06 02:05:57;;;;;;;9.82;9.02;;;9.90;88.80;;;;;;5016152;29;20106;-66
2021/10/06 02:08:30;;;;;;;9.20;8.40;;;9.80;88.10;;;;;;5017570;29;20781;-67
2021/10/06 02:11:02;;;;;;;8.68;7.82;;;9.80;88.10;;;;;;4999919;29;20583;-67
2021/10/06 02:13:34;;;;;;;8.80;7.88;;;9.80;88.40;;;;;;5017832;29;20068;-67
2021/10/06 02:16:06;;;;;;;10.30;8.65;;;9.80;88.60;;;;;;5016199;29;20660;-67
2021/10/06 02:18:38;;;;;;;9.20;8.40;;;9.70;88.30;;;;;;5017206;29;20045;-67
2021/10/06 02:21:09;;;;;;;9.55;8.63;;;9.70;86.90;;;;;;4999294;29;20117;-67
2021/10/06 02:23:41;;;;;;;9.02;8.20;;;9.70;87.90;;;;;;5017907;29;20128;-66
2021/10/06 02:26:13;;;;;;;8.90;8.13;;;9.60;88.80;;;;;;5014512;29;20129;-67
2021/10/06 02:28:45;;;;;;;9.13;8.20;;;9.60;88.60;;;;;;5017460;29;20063;-68
2021/10/06 02:31:17;;;;;;;9.25;8.45;;;9.60;88.50;;;;;;5016479;29;20568;-67
2021/10/06 02:33:49;;;;;;;9.23;8.43;;;9.60;88.20;;;;;;5000778;29;20044;-68
2021/10/06 02:36:21;;;;;;;8.75;8.05;;;9.60;89.10;;;;;;5014276;29;20634;-68
2021/10/06 02:38:53;;;;;;;9.10;8.30;;;9.60;89.00;;;;;;5016859;29;20053;-67
2021/10/06 02:41:25;;;;;;;9.07;8.27;;;9.60;89.00;;;;;;5015777;29;20098;-67
2021/10/06 02:43:57;;;;;;;9.15;8.35;;;9.60;89.10;;;;;;5016486;29;20132;-68
2021/10/06 02:46:29;;;;;;;9.15;8.23;;;9.60;88.00;;;;;;5016340;29;20041;-68
2021/10/06 02:49:01;;;;;;;8.90;8.10;;;9.50;88.60;;;;;;5013404;29;20045;-68
2021/10/06 02:51:33;;;;;;;8.85;8.15;;;9.50;88.70;;;;;;5014543;29;20164;-69
2021/10/06 02:54:05;;;;;;;8.85;8.10;;;9.60;88.70;;;;;;5015527;29;20140;-67
2021/10/06 02:56:37;;;;;;;8.70;8.00;;;9.60;88.70;;;;;;5015122;29;20053;-68
2021/10/06 02:59:09;;;;;;;9.10;8.30;;;9.60;88.40;;;;;;5015492;29;20149;-66
2021/10/06 03:01:41;;;;;;;8.50;7.80;;;9.60;88.70;;;;;;5016975;29;20060;-67
2021/10/06 03:04:13;;;;;;;8.32;7.63;;;9.60;88.60;;;;;;5001089;29;20037;-65
2021/10/06 03:06:45;;;;;;;8.45;7.72;;;9.50;89.20;;;;;;5019030;29;20160;-66
2021/10/06 03:09:17;;;;;;;8.82;8.13;;;9.50;89.60;;;;;;5007497;29;20049;-67
2021/10/06 03:11:49;;;;;;;9.10;8.30;;;9.50;89.50;;;;;;5003312;29;20061;-66
2021/10/06 03:14:21;;;;;;;8.40;7.70;;;9.50;89.30;;;;;;5020621;29;20055;-66
2021/10/06 03:16:53;;;;;;;8.40;7.70;;;9.40;89.50;;;;;;5002927;29;20057;-66
2021/10/06 03:19:25;;;;;;;9.55;8.70;;;9.40;89.50;;;;;;5020313;29;20121;-66
2021/10/06 03:21:57;;;;;;;8.88;8.18;;;9.40;89.70;;;;;;5018908;29;20140;-67
2021/10/06 03:24:29;;;;;;;9.10;8.30;;;9.40;89.10;;;;;;5018248;29;20552;-67
2021/10/06 03:27:01;;;;;;;8.63;7.80;;;9.50;89.30;;;;;;5018117;29;20077;-67
2021/10/06 03:29:32;;;;;;;8.77;7.97;;;9.40;89.70;;;;;;5018489;29;20121;-67
2021/10/06 03:32:05;;;;;;;9.10;8.38;;;9.40;89.50;;;;;;5020091;29;20073;-67
2021/10/06 03:34:36;;;;;;;8.70;8.00;;;9.50;90.00;;;;;;5020809;29;20077;-67
2021/10/06 03:37:08;;;;;;;8.82;8.13;;;9.40;89.60;;;;;;5018999;29;20052;-67
2021/10/06 03:39:41;;;;;;;8.52;7.78;;;9.50;90.30;;;;;;5020025;29;20051;-67
2021/10/06 03:42:12;;;;;;;8.93;8.13;;;9.50;89.30;;;;;;5019002;29;20077;-67
2021/10/06 03:44:44;;;;;;;8.30;7.60;;;9.50;89.70;;;;;;5019586;29;20053;-67
2021/10/06 03:47:16;;;;;;;8.40;7.60;;;9.40;89.60;;;;;;5016010;29;20055;-68
2021/10/06 03:49:48;;;;;;;8.32;7.65;;;9.40;89.60;;;;;;5019394;29;20168;-66
2021/10/06 03:52:20;;;;;;;8.20;7.50;;;9.30;87.70;;;;;;5018084;29;20140;-67
2021/10/06 03:54:52;;;;;;;9.02;8.13;;;9.20;86.80;;;;;;5020157;29;20564;-68
2021/10/06 03:57:24;;;;;;;9.00;8.20;;;9.20;88.20;;;;;;5017999;29;20054;-68
2021/10/06 03:59:56;;;;;;;8.60;7.90;;;9.20;88.20;;;;;;5020099;29;20063;-68
2021/10/06 04:02:28;;;;;;;8.65;7.88;;;9.30;88.00;;;;;;5019748;29;20172;-70
2021/10/06 04:05:01;;;;;;;8.73;8.02;;;9.30;88.00;;;;;;5003893;29;20344;-67
2021/10/06 04:07:33;;;;;;;8.73;8.02;;;9.30;87.20;;;;;;5017981;29;20134;-69
2021/10/06 04:10:05;;;;;;;8.57;7.78;;;9.20;87.40;;;;;;5018534;29;20069;-69
2021/10/06 04:12:37;;;;;;;8.10;7.50;;;9.20;88.50;;;;;;5018086;29;20124;-68
2021/10/06 04:15:10;;;;;;;8.50;7.80;;;9.20;89.00;;;;;;5018384;29;20045;-67
2021/10/06 04:17:42;;;;;;;8.57;7.88;;;9.20;88.60;;;;;;5018546;29;20061;-67
2021/10/06 04:20:14;;;;;;;8.18;7.47;;;9.20;88.90;;;;;;5018347;29;20608;-67
2021/10/06 04:22:46;;;;;;;7.90;7.30;;;9.20;89.40;;;;;;5016688;29;20133;-67
2021/10/06 04:25:18;;;;;;;8.07;7.38;;;9.10;88.30;;;;;;5017241;29;20065;-67
2021/10/06 04:27:50;;;;;;;7.88;7.18;;;9.10;88.70;;;;;;5017228;29;20057;-67
2021/10/06 04:30:21;;;;;;;7.93;7.22;;;9.10;88.60;;;;;;5019195;29;20045;-67
2021/10/06 04:32:53;;;;;;;8.43;7.70;;;9.10;88.60;;;;;;5018848;29;20956;-69
2021/10/06 04:35:26;;;;;;;8.35;7.65;;;9.10;88.90;;;;;;5018961;29;20444;-67
2021/10/06 04:37:58;;;;;;;7.78;7.07;;;9.20;88.70;;;;;;5018964;29;20312;-67
2021/10/06 04:40:30;;;;;;;7.40;6.80;;;9.10;88.20;;;;;;5017640;29;20129;-68
2021/10/06 04:43:02;;;;;;;7.65;6.95;;;9.10;88.30;;;;;;5018494;29;20433;-67
2021/10/06 04:45:33;;;;;;;7.40;6.80;;;9.10;88.60;;;;;;5015105;29;20828;-68
2021/10/06 04:48:06;;;;;;;7.70;7.00;;;9.10;88.30;;;;;;5017240;29;20584;-67
2021/10/06 04:50:38;;;;;;;7.53;6.93;;;9.10;88.20;;;;;;5015974;29;20611;-67
2021/10/06 04:53:09;;;;;;;7.57;6.97;;;9.00;87.80;;;;;;5019119;29;20076;-66
2021/10/06 04:55:41;;;;;;;7.28;6.60;;;9.00;88.30;;;;;;5016367;29;20069;-68
2021/10/06 04:58:14;;;;;;;7.28;6.68;;;9.00;88.60;;;;;;4986851;29;20133;-68
2021/10/06 05:00:46;;;;;;;7.15;6.50;;;9.00;89.50;;;;;;5018182;29;20078;-68
2021/10/06 05:03:18;;;;;;;7.65;6.95;;;9.00;88.80;;;;;;5019083;29;20090;-68
2021/10/06 05:05:50;;;;;;;8.15;7.35;;;9.00;88.60;;;;;;5017257;29;20080;-69
2021/10/06 05:08:22;;;;;;;8.07;7.38;;;9.00;87.40;;;;;;5017499;29;20056;-68
2021/10/06 05:10:54;;;;;;;8.38;7.50;;;9.00;88.60;;;;;;5017407;29;20052;-68
2021/10/06 05:13:26;;;;;;;8.05;7.38;;;9.00;88.90;;;;;;5015554;29;20063;-67
2021/10/06 05:15:58;;;;;;;7.93;7.32;;;8.90;88.30;;;;;;5016921;29;20144;-67
2021/10/06 05:18:30;;;;;;;7.88;7.18;;;8.90;88.90;;;;;;5017726;29;20423;-68
2021/10/06 05:21:02;;;;;;;8.00;7.40;;;8.80;88.90;;;;;;5016061;29;20057;-68
2021/10/06 05:23:33;;;;;;;7.90;7.30;;;8.80;88.80;;;;;;5016311;29;20045;-68
2021/10/06 05:26:05;;;;;;;8.00;7.40;;;8.70;89.00;;;;;;5015399;29;20058;-69
2021/10/06 05:28:38;;;;;;;7.80;7.20;;;8.70;89.30;;;;;;5015376;29;20069;-68
2021/10/06 05:31:10;;;;;;;8.23;7.40;;;8.70;89.30;;;;;;5017903;29;20420;-67
2021/10/06 05:33:42;;;;;;;8.30;7.60;;;8.70;88.70;;;;;;5016640;29;20133;-68
2021/10/06 05:36:15;;;;;;;7.97;7.28;;;8.70;89.80;;;;;;5014080;29;20148;-68
2021/10/06 05:38:47;;;;;;;7.95;7.25;;;8.60;89.20;;;;;;5016275;29;20058;-68
2021/10/06 05:41:19;;;;;;;8.07;7.40;;;8.60;89.50;;;;;;5016877;29;20776;-69
2021/10/06 05:43:51;;;;;;;7.95;7.22;;;8.60;89.20;;;;;;5018519;29;20060;-69
2021/10/06 05:46:26;;;;;;;8.00;7.30;;;8.60;89.60;;;;;;5016906;29;20050;-68
2021/10/06 05:48:58;;;;;;;7.68;6.97;;;8.60;89.00;;;;;;5015342;29;20699;-67
2021/10/06 05:51:30;;;;;;;8.23;7.53;;;8.60;89.50;;;;;;5013999;29;20539;-68
2021/10/06 05:54:01;;;;;;;8.27;7.57;;;8.60;89.00;;;;;;5016588;29;20048;-68
2021/10/06 05:56:33;;;;;;;8.27;7.57;;;8.60;89.10;;;;;;4998644;29;20069;-69
2021/10/06 05:59:05;;;;;;;8.70;7.90;;;8.70;89.30;;;;;;5017056;29;20132;-67
2021/10/06 06:01:37;;;;;;;8.55;7.75;;;8.70;89.90;;;;;;5014787;29;20052;-68
2021/10/06 06:04:09;;;;;;;7.88;7.13;;;8.70;90.80;;;;;;5016687;29;20045;-68
2021/10/06 06:06:43;;;;;;;8.20;7.50;;;8.70;90.40;;;;;;5014776;29;20041;-67
2021/10/06 06:09:17;;;;;;;8.63;7.82;;;8.70;90.50;;;;;;5001096;29;20508;-70
2021/10/06 06:11:50;;;;;;;7.97;7.28;;;8.70;90.20;;;;;;5015922;29;20608;-68
2021/10/06 06:14:22;;;;;;;8.88;7.43;;;8.60;90.40;;;;;;5016373;29;20085;-68
2021/10/06 06:16:54;;;;;;;7.85;7.15;;;8.60;91.20;;;;;;4998949;29;20161;-67
2021/10/06 06:19:26;;;;;;;8.10;7.15;;;8.70;90.60;;;;;;5015894;29;20054;-68
2021/10/06 06:21:58;;;;;;;7.88;7.18;;;8.60;90.50;;;;;;5016456;29;20077;-68
2021/10/06 06:24:30;;;;;;;7.68;6.97;;;8.70;90.80;;;;;;5017083;29;20128;-69
2021/10/06 06:27:03;;;;;;;8.00;7.30;;;8.70;90.90;;;;;;5016105;29;20077;-67
2021/10/06 06:29:36;;;;;;;7.80;7.20;;;8.70;90.30;;;;;;5017095;29;20068;-67
2021/10/06 06:32:07;;;;;;;8.07;7.38;;;8.80;90.00;;;;;;5016223;29;20051;-67
2021/10/06 06:34:39;;;;;;;7.97;7.18;;;8.80;89.80;;;;;;5015992;29;20656;-68
2021/10/06 06:37:11;;;;;;;8.20;7.50;;;8.90;89.90;;;;;;5016575;29;20068;-69
2021/10/06 06:39:43;;;;;;;7.95;7.25;;;8.90;89.90;;;;;;5015528;29;20077;-68
2021/10/06 06:42:15;;;;;;;8.27;7.57;;;9.00;89.60;;;;;;5017260;29;20247;-68
2021/10/06 06:44:47;;;;;;;7.80;7.20;;;9.00;89.50;;;;;;5000655;29;20553;-68
2021/10/06 06:47:19;;;;;;;8.32;7.53;;;9.00;89.30;;;;;;5016107;29;20132;-67
2021/10/06 06:49:52;;;;;;;8.32;7.63;;;9.00;89.60;;;;;;5000691;29;20145;-68
2021/10/06 06:52:24;;;;;;;8.40;7.60;;;9.10;89.90;;;;;;5015631;29;20568;-68
2021/10/06 06:54:56;;;;;;;8.15;7.45;;;9.10;89.50;;;;;;5016922;29;20156;-68
2021/10/06 06:57:28;;;;;;;8.00;7.30;;;9.10;89.50;;;;;;5013971;29;20112;-67
2021/10/06 07:00:00;;;;;;;8.18;7.47;;;9.10;89.40;;;;;;5001497;29;20045;-67
2021/10/06 07:02:32;;;;;;;7.97;7.28;;;9.20;89.40;;;;;;4999677;29;20105;-67
2021/10/06 07:05:04;;;;;;;8.15;7.55;;;9.20;89.20;;;;;;5017316;29;20128;-67
2021/10/06 07:07:36;;;;;;;8.32;7.63;;;9.20;88.90;;;;;;4999858;29;20057;-69
2021/10/06 07:10:08;;;;;;;8.48;7.78;;;9.20;89.10;;;;;;5016099;29;20045;-68
2021/10/06 07:12:40;;;;;;;8.18;7.47;;;9.20;89.10;;;;;;5000989;29;20095;-69
2021/10/06 07:15:12;;;;;;;8.30;7.60;;;9.20;89.10;;;;;;5016441;29;20513;-69
2021/10/06 07:17:44;;;;;;;8.15;7.47;;;9.20;89.00;;;;;;5015586;29;20045;-68
2021/10/06 07:20:16;;;;;;;8.15;7.47;;;9.10;89.20;;;;;;5016101;29;20073;-68
2021/10/06 07:22:48;;;;;;;8.25;7.57;;;9.10;89.50;;;;;;5015068;29;20098;-68
2021/10/06 07:25:20;;;;;;;8.18;7.47;;;9.10;89.50;;;;;;5015811;29;20142;-68
2021/10/06 07:27:52;;;;;;;7.88;7.20;;;9.00;89.50;;;;;;5013561;29;20053;-69
2021/10/06 07:30:25;;;;;;;8.25;7.55;;;9.00;89.10;;;;;;5016614;29;20531;-68
2021/10/06 07:32:58;;;;;;;7.88;7.18;;;9.00;88.70;;;;;;5016190;29;20056;-67
2021/10/06 07:35:30;;;;;;;8.63;7.70;;;9.00;89.30;;;;;;5015145;29;20169;-67
2021/10/06 07:38:02;;;;;;;8.48;7.78;;;9.10;88.60;;;;;;5016356;29;20507;-67
2021/10/06 07:40:34;;;;;;;8.32;7.57;;;9.10;89.20;;;;;;5015732;29;20076;-68
2021/10/06 07:43:06;;;;;;;8.25;7.55;;;9.10;88.70;;;;;;5001380;29;20049;-69
2021/10/06 07:45:39;;;;;;;8.30;7.60;;;9.20;88.90;;;;;;5016357;29;20052;-67
2021/10/06 07:48:11;;;;;;;7.82;7.18;;;9.20;88.70;;;;;;5004349;29;20073;-67
2021/10/06 07:50:43;;;;;;;8.48;7.72;;;9.30;89.00;;;;;;5001445;29;20117;-69
2021/10/06 07:53:15;;;;;;;8.48;7.68;;;9.30;89.00;;;;;;5020292;29;20529;-68
2021/10/06 07:55:47;;;;;;;7.88;7.28;;;9.40;88.40;;;;;;5002671;29;20405;-69
2021/10/06 07:58:22;;;;;;;8.10;7.40;;;9.40;88.70;;;;;;5019290;29;20147;-68
2021/10/06 08:00:57;;;;;;;8.30;7.60;;;9.50;88.70;;;;;;5019794;29;20046;-68
2021/10/06 08:03:30;;;;;;;8.52;7.82;;;9.50;88.20;;;;;;5020106;29;20105;-67
2021/10/06 08:06:02;;;;;;;8.38;7.68;;;9.50;88.40;;;;;;5018856;29;20148;-67
2021/10/06 08:08:34;;;;;;;8.80;8.00;;;9.50;88.00;;;;;;5003647;29;20045;-67
2021/10/06 08:11:06;;;;;;;8.52;7.70;;;9.50;88.10;;;;;;5018228;29;20164;-68
2021/10/06 08:13:38;;;;;;;8.00;7.30;;;9.60;88.70;;;;;;5019462;29;20076;-70
2021/10/06 08:16:10;;;;;;;9.23;8.43;;;9.60;88.50;;;;;;5017269;29;20767;-68
2021/10/06 08:18:42;;;;;;;8.55;7.75;;;9.70;87.90;;;;;;5018173;29;20041;-67
2021/10/06 08:21:18;;;;;;;8.75;8.05;;;9.70;87.80;;;;;;5017926;29;20533;-69
2021/10/06 08:23:50;;;;;;;8.90;8.10;;;9.70;88.40;;;;;;5018377;29;20630;-67
2021/10/06 08:26:22;;;;;;;9.18;8.40;;;9.70;87.90;;;;;;5017992;29;20397;-68
2021/10/06 08:28:56;;;;;;;8.77;8.07;;;9.60;88.00;;;;;;5019066;29;20110;-69
2021/10/06 08:31:28;;;;;;;8.82;8.13;;;9.60;88.40;;;;;;5017204;29;20053;-68
2021/10/06 08:34:00;;;;;;;8.50;7.80;;;9.70;89.40;;;;;;5003816;29;20559;-67
2021/10/06 08:36:33;;;;;;;8.75;8.05;;;9.70;88.00;;;;;;5017452;29;20658;-68
2021/10/06 08:39:08;;;;;;;8.65;7.95;;;9.70;88.10;;;;;;5003779;29;20066;-68
2021/10/06 08:41:40;;;;;;;8.80;8.10;;;9.80;87.90;;;;;;5017636;29;20520;-67
2021/10/06 08:44:12;;;;;;;8.77;8.00;;;9.80;87.80;;;;;;5018200;29;20065;-68
2021/10/06 08:46:44;;;;;;;9.10;8.40;;;9.80;87.90;;;;;;5016418;29;20072;-68
2021/10/06 08:49:17;;;;;;;8.73;7.93;;;9.80;87.80;;;;;;5018267;29;20121;-69
2021/10/06 08:51:48;;;;;;;8.40;7.70;;;9.80;88.30;;;;;;5018970;29;20061;-68
2021/10/06 08:54:21;;;;;;;8.40;7.70;;;9.90;88.60;;;;;;5018939;29;20160;-69
2021/10/06 08:56:53;;;;;;;8.77;8.07;;;10.00;88.00;;;;;;5017446;29;20391;-69
2021/10/06 08:59:25;;;;;;;9.25;8.45;;;10.00;87.20;;;;;;5018541;29;20091;-68
2021/10/06 09:02:09;;;;;;;9.23;8.52;;;9.90;87.60;;;;;;5017954;29;20121;-67
2021/10/06 09:04:42;;;;;;;9.70;8.90;;;9.90;87.30;;;;;;5018978;29;20164;-67
2021/10/06 09:07:14;;;;;;;8.98;8.25;;;9.80;87.10;;;;;;5001595;29;20168;-68
2021/10/06 09:09:47;;;;;;;8.88;8.18;;;9.90;86.70;;;;;;5018065;29;21791;-68
2021/10/06 09:12:21;;;;;;;8.95;8.25;;;10.00;87.50;;;;;;5018026;29;20776;-68
2021/10/06 09:14:53;;;;;;;8.70;8.00;;;10.10;87.30;;;;;;5017735;29;20516;-68
2021/10/06 09:17:25;;;;;;;9.27;8.48;;;10.20;87.70;;;;;;5017921;29;20063;-68
2021/10/06 09:19:57;;;;;;;9.82;8.95;;;10.20;88.20;;;;;;5017955;29;20906;-68
2021/10/06 09:22:32;;;;;;;9.75;8.93;;;10.20;88.40;;;;;;5017706;29;20717;-68
2021/10/06 09:25:07;;;;;;;8.32;7.63;;;10.20;88.30;;;;;;5018121;29;20481;-68
2021/10/06 09:27:41;;;;;;;9.60;8.55;;;10.20;86.70;;;;;;5017101;29;20136;-68
2021/10/06 09:30:14;;;;;;;9.60;8.80;;;10.10;87.30;;;;;;5001535;29;20989;-67
2021/10/06 09:32:47;;;;;;;9.55;8.75;;;10.00;86.70;;;;;;5017631;29;20533;-67
2021/10/06 09:35:22;;;;;;;8.80;8.10;;;9.90;86.70;;;;;;4985815;29;20060;-67
2021/10/06 09:37:57;;;;;;;8.73;7.95;;;9.90;86.90;;;;;;5002026;29;20133;-67
2021/10/06 09:40:31;;;;;;;9.57;8.80;;;10.00;87.40;;;;;;5016476;29;20050;-67
2021/10/06 09:43:04;;;;;;;9.73;8.82;;;10.00;87.70;;;;;;5018802;29;20120;-67
2021/10/06 09:45:36;;;;;;;8.63;7.93;;;10.10;87.60;;;;;;5016645;29;20190;-68
2021/10/06 09:48:15;;;;;;;9.45;8.65;;;10.20;87.30;;;;;;5019407;29;20502;-68
2021/10/06 09:50:49;;;;;;;8.93;8.20;;;10.20;87.60;;;;;;5015785;29;20053;-69
2021/10/06 09:53:23;;;;;;;10.57;9.68;;;10.30;87.70;;;;;;5017606;29;20132;-68
2021/10/06 09:55:55;;;;;;;9.73;8.82;;;10.30;87.80;;;;;;5017034;29;20088;-67
2021/10/06 09:58:27;;;;;;;8.50;7.70;;;10.30;87.50;;;;;;5016317;29;20169;-69
2021/10/06 10:01:00;;;;;;;8.77;8.07;;;10.20;87.60;;;;;;5016814;29;20149;-68
2021/10/06 10:03:33;;;;;;;8.80;8.10;;;10.20;88.00;;;;;;5019099;29;20049;-68
2021/10/06 10:06:05;;;;;;;8.98;8.27;;;10.20;87.70;;;;;;5016625;29;20049;-68
2021/10/06 10:08:37;;;;;;;9.02;8.32;;;10.20;87.40;;;;;;5018837;29;20162;-68
2021/10/06 10:11:09;;;;;;;9.40;8.60;;;10.20;87.30;;;;;;5017087;29;20126;-68
2021/10/06 10:13:41;;;;;;;9.25;8.45;;;10.20;87.40;;;;;;5016390;29;20049;-68
2021/10/06 10:16:14;;;;;;;9.38;8.57;;;10.20;87.60;;;;;;5016692;29;20056;-68
2021/10/06 10:18:47;;;;;;;10.02;9.13;;;10.30;87.80;;;;;;5016875;29;20059;-69
2021/10/06 10:21:20;;;;;;;9.90;8.95;;;10.30;87.50;;;;;;5016844;29;20053;-68
2021/10/06 10:24:05;;;;;;;11.05;10.15;;;10.40;87.00;;;;;;5017635;29;20049;-69
2021/10/06 10:26:53;;;;;;;10.85;9.85;;;10.40;86.80;;;;;;5016437;29;20054;-68
2021/10/06 10:29:47;;;;;;;11.50;10.50;;;10.40;87.30;;;;;;5018461;29;20204;-68
2021/10/06 10:32:24;;;;;;;11.05;10.05;;;10.60;86.10;;;;;;5017195;29;20729;-68
2021/10/06 10:34:56;;;;;;;11.65;10.65;;;10.70;87.50;;;;;;5017463;29;20049;-68
2021/10/06 10:37:47;;;;;;;11.27;10.38;;;10.80;86.90;;;;;;5017152;29;20057;-68
2021/10/06 10:40:34;;;;;;;;;;;10.90;86.90;;;;;;5014630;29;20756;-68
2021/10/06 10:43:22;;;;;;;11.27;10.35;;;11.00;85.80;;;;;;5017006;29;19950;-67
2021/10/06 10:46:11;;;;;;;11.05;10.05;;;11.10;85.20;;;;;;5014794;29;20129;-67
2021/10/06 10:49:01;;;;;;;11.03;10.13;;;11.30;85.00;;;;;;5015526;29;20137;-68
2021/10/06 10:51:56;;;;;;;11.88;10.70;;;11.50;85.50;;;;;;5016441;29;20053;-70
2021/10/06 10:54:44;;;;;;;10.98;10.07;;;11.70;84.50;;;;;;5014619;29;20584;-67
2021/10/06 10:57:22;;;;;;;10.88;9.98;;;11.80;82.60;;;;;;5014529;29;20220;-68
2021/10/06 10:59:56;;;;;;;11.00;10.00;;;11.90;81.20;;;;;;5016674;29;20041;-68
2021/10/06 11:02:37;;;;;;;10.98;9.98;;;12.00;81.50;;;;;;5016289;29;20050;-67
2021/10/06 11:05:10;;;;;;;11.43;10.23;;;12.00;81.40;;;;;;5015443;29;20053;-67
2021/10/06 11:07:50;;;;;;;11.38;10.27;;;11.90;77.40;;;;;;5000527;29;20120;-67
2021/10/06 11:10:28;;;;;;;12.70;11.38;;;11.80;78.70;;;;;;5015450;29;20075;-68
2021/10/06 11:13:05;;;;;;;11.10;10.10;;;11.70;79.50;;;;;;5016283;29;20044;-67
2021/10/06 11:15:45;;;;;;;10.38;9.57;;;11.60;80.60;;;;;;5015508;29;20061;-68
2021/10/06 11:18:24;;;;;;;9.63;8.73;;;11.60;80.60;;;;;;5016942;29;21057;-68
2021/10/06 11:21:00;;;;;;;10.43;9.43;;;11.50;79.40;;;;;;5015583;29;20074;-68
2021/10/06 11:23:31;;;;;;;10.65;8.93;;;11.50;78.50;;;;;;5017999;29;20126;-68
2021/10/06 11:26:03;;;;;;;9.60;8.70;;;11.50;80.30;;;;;;5017867;29;20098;-67
2021/10/06 11:28:41;;;;;;;9.98;9.07;;;11.50;81.10;;;;;;5020934;29;20069;-68
2021/10/06 11:31:14;;;;;;;9.63;8.73;;;11.50;80.60;;;;;;5019787;29;20057;-69
2021/10/06 11:33:46;;;;;;;10.23;8.55;;;11.50;79.20;;;;;;5020229;29;20139;-68
2021/10/06 11:36:26;;;;;;;9.75;8.82;;;11.50;78.60;;;;;;5019536;29;20148;-68
2021/10/06 11:39:05;;;;;;;9.50;8.60;;;11.50;80.70;;;;;;5019418;29;20547;-68
2021/10/06 11:41:46;;;;;;;10.15;9.23;;;11.50;79.20;;;;;;5018802;29;20071;-68
2021/10/06 11:44:27;;;;;;;;;;;11.40;80.30;;;;;;5020119;29;20140;-69
2021/10/06 11:47:02;;;;;;;9.32;8.35;;;11.40;81.50;;;;;;5017196;29;19938;-69
2021/10/06 11:49:37;;;;;;;9.65;8.75;;;11.40;81.90;;;;;;5018640;29;20038;-68
2021/10/06 11:52:13;;;;;;;9.63;8.82;;;11.30;81.80;;;;;;5003274;29;20049;-68
2021/10/06 11:54:46;;;;;;;10.45;9.55;;;11.20;80.20;;;;;;5019876;29;20175;-69
2021/10/06 11:57:18;;;;;;;9.77;8.82;;;11.10;80.00;;;;;;5018173;29;20144;-68
2021/10/06 11:59:51;;;;;;;9.20;8.40;;;11.00;78.00;;;;;;5018385;29;20060;-68
2021/10/06 12:02:22;;;;;;;9.25;8.50;;;11.00;80.00;;;;;;5017884;29;20172;-68
2021/10/06 12:04:56;;;;;;;10.20;9.20;;;11.00;80.80;;;;;;5018696;29;20136;-68
2021/10/06 12:07:30;;;;;;;9.32;8.52;;;11.10;79.50;;;;;;5017418;29;20053;-68
2021/10/06 12:10:11;;;;;;;9.20;8.40;;;11.10;81.30;;;;;;5018187;29;20573;-68
2021/10/06 12:12:43;;;;;;;9.52;8.60;;;11.10;80.30;;;;;;5017450;29;20133;-68
2021/10/06 12:15:16;;;;;;;9.07;8.35;;;11.10;80.80;;;;;;5018748;29;20452;-69
2021/10/06 12:17:48;;;;;;;9.80;9.00;;;11.10;80.00;;;;;;5019598;29;20110;-69
2021/10/06 12:20:22;;;;;;;9.13;8.27;;;11.20;80.00;;;;;;5016374;29;20122;-68
2021/10/06 12:22:59;;;;;;;8.98;8.23;;;11.20;79.20;;;;;;5018055;29;20120;-68
2021/10/06 12:25:33;;;;;;;8.77;8.07;;;11.20;78.70;;;;;;5018436;29;20417;-70
2021/10/06 12:28:11;;;;;;;9.50;8.70;;;11.40;80.40;;;;;;5018588;29;20534;-68
2021/10/06 12:30:50;;;;;;;9.27;8.38;;;11.50;79.20;;;;;;5018771;29;20053;-70
2021/10/06 12:33:26;;;;;;;9.65;8.80;;;11.60;80.30;;;;;;5018093;29;20077;-68
2021/10/06 12:36:04;;;;;;;9.85;9.05;;;11.70;79.80;;;;;;5016949;29;20041;-68
2021/10/06 12:38:40;;;;;;;10.00;9.10;;;11.70;76.90;;;;;;5018052;29;20156;-68
2021/10/06 12:41:15;;;;;;;9.63;8.82;;;11.80;79.00;;;;;;5018374;29;20409;-69
2021/10/06 12:43:47;;;;;;;10.15;9.35;;;11.90;76.80;;;;;;5018832;29;20041;-68
2021/10/06 12:46:24;;;;;;;10.73;9.63;;;11.90;78.70;;;;;;5018808;29;20049;-68
2021/10/06 12:48:57;;;;;;;10.52;9.63;;;12.10;78.70;;;;;;5018331;29;20054;-69
2021/10/06 12:51:31;;;;;;;10.65;9.75;;;12.20;77.20;;;;;;5019120;29;20057;-69
2021/10/06 12:54:15;;;;;;;10.80;9.80;;;12.30;75.70;;;;;;5003757;29;20053;-68
2021/10/06 12:56:51;;;;;;;10.65;9.80;;;12.40;74.20;;;;;;5017639;29;20053;-68
2021/10/06 12:59:37;;;;;;;10.70;9.80;;;12.40;74.50;;;;;;5019104;29;20382;-69
2021/10/06 13:02:13;;;;;;;10.70;9.80;;;12.20;73.60;;;;;;5018352;29;20513;-68
2021/10/06 13:04:45;;;;;;;10.10;9.30;;;12.00;73.90;;;;;;5019974;29;20162;-69
2021/10/06 13:07:17;;;;;;;10.10;9.32;;;11.90;74.50;;;;;;5018534;29;20512;-69
2021/10/06 13:09:49;;;;;;;9.88;9.00;;;11.80;75.80;;;;;;5018484;29;20049;-69
2021/10/06 13:12:21;;;;;;;9.98;9.18;;;11.80;75.80;;;;;;5018368;29;20185;-68
2021/10/06 13:14:53;;;;;;;10.00;9.10;;;11.60;75.20;;;;;;5018040;29;20053;-69
2021/10/06 13:17:25;;;;;;;9.75;8.95;;;11.50;75.80;;;;;;5018259;29;20492;-68
2021/10/06 13:19:57;;;;;;;9.80;9.00;;;11.50;76.00;;;;;;5018768;29;20173;-68
2021/10/06 13:22:29;;;;;;;10.10;9.20;;;11.40;78.30;;;;;;5017335;29;20132;-68